createdAt,value
2018-08-06T00:02:09.698Z,77.40
2018-08-06T00:07:13.056Z,78.30
2018-08-06T00:12:16.126Z,78.80
2018-08-06T00:17:19.167Z,78.20
2018-08-06T00:22:22.222Z,77.50
2018-08-06T00:27:25.246Z,77.50
2018-08-06T00:32:28.455Z,78.60
2018-08-06T00:37:31.471Z,77.60
2018-08-06T00:42:34.506Z,78.20
2018-08-06T00:47:37.671Z,79.10
2018-08-06T00:52:40.704Z,79.20
2018-08-06T00:57:43.966Z,78.60
2018-08-06T01:02:47.014Z,78.20
2018-08-06T01:07:50.114Z,78.30
2018-08-06T01:12:53.134Z,78.20
2018-08-06T01:17:56.184Z,78.20
2018-08-06T01:22:59.249Z,77.70
2018-08-06T01:28:02.298Z,77.60
2018-08-06T01:33:05.377Z,77.20
2018-08-06T01:38:08.443Z,77.50
2018-08-06T01:48:14.389Z,77.70
2018-08-06T01:53:17.462Z,77.80
2018-08-06T01:58:20.455Z,78.10
2018-08-06T02:03:23.498Z,78.20
2018-08-06T02:08:26.532Z,78.20
2018-08-06T02:13:29.622Z,78.50
2018-08-06T02:18:32.654Z,78.30
2018-08-06T02:23:35.752Z,79.00
2018-08-06T02:28:38.803Z,80.70
2018-08-06T02:33:41.832Z,80.00
2018-08-06T02:38:44.890Z,79.90
2018-08-06T02:43:48.098Z,79.90
2018-08-06T02:48:51.111Z,80.60
2018-08-06T02:53:54.206Z,80.70
2018-08-06T02:58:57.411Z,81.00
2018-08-06T03:04:00.431Z,81.50
2018-08-06T03:09:04.517Z,81.50
2018-08-06T03:14:07.559Z,81.80
2018-08-06T03:19:10.595Z,82.20
2018-08-06T03:24:13.711Z,82.50
2018-08-06T03:29:16.754Z,82.50
2018-08-06T03:34:19.783Z,82.70
2018-08-06T03:39:22.851Z,83.00
2018-08-06T03:44:25.875Z,83.30
2018-08-06T03:49:28.970Z,83.50
2018-08-06T03:54:32.074Z,83.90
2018-08-06T03:59:35.176Z,84.80
2018-08-06T04:04:38.258Z,85.30
2018-08-06T04:09:41.271Z,86.00
2018-08-06T04:14:44.271Z,86.80
2018-08-06T04:19:47.362Z,86.50
2018-08-06T04:24:50.656Z,87.00
2018-08-06T04:29:53.689Z,86.90
2018-08-06T04:34:57.215Z,87.00
2018-08-06T04:40:00.231Z,87.60
2018-08-06T04:45:03.399Z,87.90
2018-08-06T04:50:07.555Z,88.20
2018-08-06T04:55:13.202Z,89.20
2018-08-06T05:00:16.370Z,88.90
2018-08-06T05:05:19.456Z,89.50
2018-08-06T05:10:22.517Z,89.70
2018-08-06T05:15:25.578Z,90.00
2018-08-06T05:20:28.635Z,90.20
2018-08-06T05:25:31.660Z,89.90
2018-08-06T05:30:34.746Z,90.20
2018-08-06T05:35:37.775Z,90.20
2018-08-06T05:40:40.831Z,90.00
2018-08-06T05:45:43.881Z,89.50
2018-08-06T05:50:46.955Z,89.00
2018-08-06T05:55:50.035Z,88.90
2018-08-06T06:00:53.094Z,89.00
2018-08-06T06:05:56.160Z,89.00
2018-08-06T06:10:59.230Z,88.70
2018-08-06T06:16:02.382Z,87.70
2018-08-06T06:21:05.498Z,88.30
2018-08-06T06:26:08.542Z,88.30
2018-08-06T06:31:11.697Z,87.40
2018-08-06T06:36:14.724Z,86.80
2018-08-06T06:41:17.795Z,86.50
2018-08-06T06:46:20.830Z,87.50
2018-08-06T06:51:23.845Z,87.60
2018-08-06T06:56:26.907Z,87.80
2018-08-06T07:01:30.195Z,86.90
2018-08-06T07:06:33.275Z,86.80
2018-08-06T07:11:36.448Z,86.30
2018-08-06T07:16:39.538Z,84.60
2018-08-06T07:21:42.618Z,84.10
2018-08-06T07:26:45.681Z,83.30
2018-08-06T07:31:48.702Z,84.70
2018-08-06T07:36:51.786Z,83.90
2018-08-06T07:41:54.870Z,83.60
2018-08-06T07:52:00.825Z,81.20
2018-08-06T07:57:10.686Z,78.20
2018-08-06T08:02:13.739Z,79.30
2018-08-06T08:07:16.808Z,78.30
2018-08-06T08:12:19.887Z,78.20
2018-08-06T08:17:22.983Z,78.10
2018-08-06T08:22:26.049Z,77.60
2018-08-06T08:27:29.127Z,76.60
2018-08-06T08:32:32.191Z,76.30
2018-08-06T08:37:35.653Z,74.90
2018-08-06T08:42:38.769Z,73.30
2018-08-06T08:47:42.790Z,73.80
2018-08-06T08:52:45.942Z,74.10
2018-08-06T08:57:48.954Z,73.90
2018-08-06T09:02:52.682Z,73.80
2018-08-06T09:07:55.787Z,74.10
2018-08-06T09:12:58.829Z,72.50
2018-08-06T09:18:01.882Z,72.20
2018-08-06T09:23:04.986Z,68.10
2018-08-06T09:28:07.990Z,67.00
2018-08-06T09:33:11.059Z,66.70
2018-08-06T09:38:14.115Z,64.80
2018-08-06T09:43:17.175Z,63.10
2018-08-06T09:48:20.185Z,59.30
2018-08-06T09:53:23.258Z,59.90
2018-08-06T09:58:26.311Z,58.20
2018-08-06T10:03:29.343Z,60.20
2018-08-06T10:08:32.338Z,58.60
2018-08-06T10:13:35.374Z,58.80
2018-08-06T10:23:41.415Z,56.60
2018-08-06T10:28:44.460Z,56.30
2018-08-06T10:33:47.569Z,55.90
2018-08-06T10:38:50.633Z,55.60
2018-08-06T10:43:53.654Z,54.20
2018-08-06T10:48:56.665Z,55.10
2018-08-06T10:53:59.793Z,55.10
2018-08-06T10:59:02.879Z,53.40
2018-08-06T11:04:06.273Z,52.50
2018-08-06T11:09:09.298Z,51.90
2018-08-06T11:14:12.413Z,52.00
2018-08-06T11:19:15.382Z,51.30
2018-08-06T11:24:18.431Z,50.90
2018-08-06T11:29:21.506Z,48.50
2018-08-06T11:34:24.647Z,48.90
2018-08-06T11:39:27.705Z,48.80
2018-08-06T11:44:30.858Z,47.80
2018-08-06T11:49:40.581Z,48.60
2018-08-06T11:54:43.689Z,48.20
2018-08-06T11:59:46.760Z,46.30
2018-08-06T12:04:49.991Z,47.70
2018-08-06T12:09:53.065Z,45.10
2018-08-06T12:14:56.273Z,44.80
2018-08-06T12:19:59.296Z,45.70
2018-08-06T12:25:02.400Z,44.80
2018-08-06T12:30:08.588Z,43.80
2018-08-06T12:35:11.634Z,42.70
2018-08-06T12:40:16.640Z,43.60
2018-08-06T12:45:19.670Z,41.30
2018-08-06T12:50:22.659Z,42.30
2018-08-06T12:55:25.738Z,43.80
2018-08-06T13:00:28.758Z,41.50
2018-08-06T13:05:31.770Z,41.50
2018-08-06T13:10:34.817Z,42.00
2018-08-06T13:15:37.835Z,41.40
2018-08-06T13:20:40.867Z,39.80
2018-08-06T13:25:43.942Z,41.10
2018-08-06T13:30:47.404Z,41.50
2018-08-06T13:35:50.807Z,39.70
2018-08-06T13:40:53.807Z,39.00
2018-08-06T13:45:56.822Z,38.80
2018-08-06T13:50:59.887Z,39.50
2018-08-06T13:56:02.970Z,37.40
2018-08-06T14:01:06.019Z,38.80
2018-08-06T14:06:09.021Z,36.50
2018-08-06T14:11:12.160Z,37.20
2018-08-06T14:16:15.225Z,37.40
2018-08-06T14:21:18.322Z,36.60
2018-08-06T14:26:21.380Z,36.80
2018-08-06T14:31:24.486Z,36.50
2018-08-06T14:36:27.460Z,36.70
2018-08-06T14:41:30.476Z,37.90
2018-08-06T14:46:33.762Z,36.70
2018-08-06T14:51:38.845Z,36.80
2018-08-06T14:56:41.972Z,36.40
2018-08-06T15:01:45.037Z,36.40
2018-08-06T15:11:51.125Z,35.00
2018-08-06T15:16:54.255Z,36.90
2018-08-06T15:21:57.360Z,35.10
2018-08-06T15:27:00.433Z,35.10
2018-08-06T15:32:03.544Z,34.50
2018-08-06T15:37:06.513Z,33.60
2018-08-06T15:42:09.674Z,33.50
2018-08-06T15:47:12.698Z,34.80
2018-08-06T15:52:15.746Z,34.10
2018-08-06T15:57:18.751Z,34.60
2018-08-06T16:02:21.770Z,34.60
2018-08-06T16:07:24.787Z,34.40
2018-08-06T16:12:27.839Z,35.00
2018-08-06T16:17:30.897Z,36.10
2018-08-06T16:27:36.822Z,35.20
2018-08-06T16:32:39.991Z,34.30
2018-08-06T16:37:43.018Z,34.20
2018-08-06T16:47:49.459Z,34.50
2018-08-06T16:52:52.622Z,34.40
2018-08-06T16:57:55.607Z,34.50
2018-08-06T17:02:58.739Z,34.30
2018-08-06T17:08:01.830Z,33.50
2018-08-06T17:13:04.846Z,33.90
2018-08-06T17:18:07.895Z,34.30
2018-08-06T17:23:10.947Z,34.50
2018-08-06T17:28:14.022Z,34.40
2018-08-06T17:33:17.645Z,33.60
2018-08-06T17:38:20.657Z,34.80
2018-08-06T17:43:23.706Z,35.50
2018-08-06T17:48:26.747Z,37.00
2018-08-06T17:53:29.804Z,37.50
2018-08-06T17:58:32.854Z,39.30
2018-08-06T18:03:35.900Z,39.50
2018-08-06T18:08:38.933Z,39.70
2018-08-06T18:13:41.987Z,40.20
2018-08-06T18:18:45.043Z,41.00
2018-08-06T18:23:48.171Z,41.80
2018-08-06T18:28:51.204Z,42.70
2018-08-06T18:33:54.299Z,43.00
2018-08-06T18:38:57.495Z,43.20
2018-08-06T18:44:00.629Z,43.40
2018-08-06T18:49:04.003Z,43.90
2018-08-06T18:54:07.079Z,44.90
2018-08-06T18:59:10.130Z,45.20
2018-08-06T19:04:13.204Z,44.80
2018-08-06T19:09:18.153Z,45.70
2018-08-06T19:14:22.796Z,46.50
2018-08-06T19:19:27.342Z,46.50
2018-08-06T19:24:36.046Z,46.90
2018-08-06T19:29:39.019Z,47.50
2018-08-06T19:34:42.230Z,47.90
2018-08-06T19:39:45.235Z,48.30
2018-08-06T19:44:48.740Z,48.40
2018-08-06T19:49:57.331Z,48.50
2018-08-06T19:55:05.838Z,49.30
2018-08-06T20:00:09.793Z,49.30
2018-08-06T20:05:12.807Z,50.20
2018-08-06T20:10:16.104Z,49.90
2018-08-06T20:15:20.068Z,50.40
2018-08-06T20:20:23.115Z,51.10
2018-08-06T20:25:26.160Z,51.50
2018-08-06T20:30:29.209Z,52.10
2018-08-06T20:35:32.301Z,52.00
2018-08-06T20:40:35.302Z,52.30
2018-08-06T20:45:38.324Z,52.10
2018-08-06T20:50:41.872Z,52.00
2018-08-06T20:55:44.902Z,52.20
2018-08-06T21:00:47.934Z,52.10
2018-08-06T21:05:50.992Z,52.20
2018-08-06T21:10:54.103Z,52.10
2018-08-06T21:15:57.277Z,52.10
2018-08-06T21:21:00.277Z,52.70
2018-08-06T21:26:03.330Z,52.60
2018-08-06T21:31:06.400Z,52.40
2018-08-06T21:36:09.406Z,52.60
2018-08-06T21:41:12.447Z,52.50
2018-08-06T21:46:15.477Z,52.80
2018-08-06T21:51:18.602Z,53.10
2018-08-06T21:56:21.622Z,53.00
2018-08-06T22:01:24.634Z,53.20
2018-08-06T22:06:27.662Z,53.30
2018-08-06T22:11:30.715Z,53.20
2018-08-06T22:16:33.999Z,53.30
2018-08-06T22:21:37.134Z,53.20
2018-08-06T22:26:40.130Z,53.40
2018-08-06T22:31:43.146Z,53.40
2018-08-06T22:36:46.198Z,53.60
2018-08-06T22:41:49.341Z,53.60
2018-08-06T22:46:53.162Z,53.70
2018-08-06T22:51:56.234Z,53.90
2018-08-06T22:56:59.295Z,54.40
2018-08-06T23:02:02.342Z,54.70
2018-08-06T23:07:05.346Z,54.90
2018-08-06T23:12:08.510Z,55.10
2018-08-06T23:17:11.528Z,55.40
2018-08-06T23:22:14.547Z,56.10
2018-08-06T23:27:17.570Z,55.60
2018-08-06T23:32:20.615Z,55.80
2018-08-06T23:37:23.636Z,56.10
2018-08-06T23:42:26.686Z,56.30
2018-08-06T23:47:29.713Z,56.40
2018-08-06T23:52:32.742Z,56.30
